createdAt,value
2023-03-26T00:02:19.254Z,4.00
2023-03-26T00:07:23.261Z,3.70
2023-03-26T00:12:26.696Z,5.17
2023-03-26T00:17:30.265Z,5.10
2023-03-26T00:22:33.457Z,5.03
2023-03-26T00:27:36.792Z,4.70
2023-03-26T00:32:40.420Z,3.80
2023-03-26T00:37:46.425Z,3.47
2023-03-26T00:42:49.736Z,4.13
2023-03-26T00:47:53.042Z,4.17
2023-03-26T00:52:56.290Z,4.07
2023-03-26T00:57:59.674Z,4.60
2023-03-26T01:03:05.096Z,4.60
2023-03-26T01:08:27.286Z,4.13
2023-03-26T01:13:38.585Z,4.57
2023-03-26T01:18:41.834Z,4.30
2023-03-26T01:23:51.663Z,3.80
2023-03-26T01:28:59.200Z,3.17
2023-03-26T01:34:22.801Z,3.90
2023-03-26T01:39:43.055Z,3.67
2023-03-26T01:45:08.487Z,3.90
2023-03-26T01:50:12.476Z,4.03
2023-03-26T01:55:16.352Z,3.30
2023-03-26T02:00:38.272Z,3.70
2023-03-26T02:05:53.227Z,3.83
2023-03-26T02:10:59.451Z,4.20
2023-03-26T02:16:05.452Z,4.33
2023-03-26T02:21:20.629Z,4.10
2023-03-26T02:26:25.546Z,3.97
2023-03-26T02:31:29.000Z,3.40
2023-03-26T02:36:32.406Z,1.93
2023-03-26T02:41:35.989Z,2.30
2023-03-26T02:46:39.303Z,1.73
2023-03-26T02:51:42.739Z,1.30
2023-03-26T02:56:45.950Z,1.20
2023-03-26T03:01:49.210Z,0.90
2023-03-26T03:06:57.858Z,1.20
2023-03-26T03:12:01.181Z,1.27
2023-03-26T03:17:04.683Z,1.10
2023-03-26T03:22:07.831Z,1.50
2023-03-26T03:27:11.112Z,1.57
2023-03-26T03:32:14.422Z,1.90
2023-03-26T03:37:20.341Z,1.90
2023-03-26T03:42:23.679Z,1.73
2023-03-26T03:47:26.909Z,2.07
2023-03-26T03:52:30.155Z,2.30
2023-03-26T03:57:33.715Z,1.80
2023-03-26T04:02:37.168Z,1.60
2023-03-26T04:07:40.796Z,1.83
2023-03-26T04:12:44.309Z,1.97
2023-03-26T04:17:47.661Z,1.67
2023-03-26T04:22:51.434Z,1.70
2023-03-26T04:27:58.781Z,2.20
2023-03-26T04:33:06.821Z,2.50
2023-03-26T04:38:11.715Z,2.20
2023-03-26T04:43:18.310Z,2.13
2023-03-26T04:48:22.334Z,2.03
2023-03-26T04:53:25.687Z,2.43
2023-03-26T04:58:33.319Z,2.53
2023-03-26T05:03:39.634Z,2.57
2023-03-26T05:08:42.967Z,3.60
2023-03-26T05:13:47.479Z,2.50
2023-03-26T05:18:51.872Z,2.80
2023-03-26T05:23:55.180Z,2.77
2023-03-26T05:28:58.832Z,2.03
2023-03-26T05:34:02.769Z,2.40
2023-03-26T05:39:06.484Z,2.93
2023-03-26T05:44:10.413Z,2.37
2023-03-26T05:49:13.832Z,2.67
2023-03-26T05:54:17.395Z,2.57
2023-03-26T05:59:20.938Z,2.33
2023-03-26T06:04:24.333Z,2.87
2023-03-26T06:09:27.709Z,3.00
2023-03-26T06:14:31.283Z,3.50
2023-03-26T06:19:34.571Z,3.90
2023-03-26T06:24:41.451Z,3.10
2023-03-26T06:29:44.757Z,3.00
2023-03-26T06:34:47.999Z,2.87
2023-03-26T06:39:51.499Z,3.13
2023-03-26T06:44:54.883Z,3.93
2023-03-26T06:49:58.112Z,3.00
2023-03-26T06:55:01.444Z,3.33
2023-03-26T07:00:06.376Z,2.97
2023-03-26T07:05:09.967Z,2.07
2023-03-26T07:10:13.604Z,1.83
2023-03-26T07:15:18.625Z,1.30
2023-03-26T07:20:22.345Z,1.10
2023-03-26T07:25:26.116Z,1.40
2023-03-26T07:30:39.416Z,0.90
2023-03-26T07:35:56.046Z,1.33
2023-03-26T07:41:14.776Z,1.30
2023-03-26T07:46:24.805Z,0.93
2023-03-26T07:51:29.334Z,1.10
2023-03-26T07:57:12.318Z,1.20
2023-03-26T08:02:21.151Z,1.00
2023-03-26T08:07:54.974Z,1.10
2023-03-26T08:13:25.330Z,1.30
2023-03-26T08:18:39.416Z,1.13
2023-03-26T08:24:13.855Z,1.20
2023-03-26T08:29:52.172Z,1.17
2023-03-26T08:34:57.958Z,1.20
2023-03-26T08:40:01.618Z,1.40
2023-03-26T08:45:34.256Z,1.40
2023-03-26T08:51:05.541Z,1.27
2023-03-26T08:56:27.044Z,1.20
2023-03-26T09:01:42.823Z,1.50
2023-03-26T09:06:58.500Z,1.37
2023-03-26T09:12:20.720Z,0.90
2023-03-26T09:17:46.530Z,0.90
2023-03-26T09:22:52.868Z,1.10
2023-03-26T09:28:30.761Z,1.03
2023-03-26T09:33:48.812Z,2.37
2023-03-26T09:39:02.829Z,1.77
2023-03-26T09:44:21.659Z,1.77
2023-03-26T09:49:43.504Z,1.53
2023-03-26T09:55:11.368Z,1.70
2023-03-26T10:00:43.169Z,1.70
2023-03-26T10:06:10.185Z,1.50
2023-03-26T10:12:03.627Z,1.23
2023-03-26T10:17:07.188Z,1.00
2023-03-26T10:22:13.309Z,1.17
2023-03-26T10:27:34.853Z,1.10
2023-03-26T10:33:26.403Z,1.37
2023-03-26T10:39:09.879Z,0.93
2023-03-26T10:44:49.942Z,0.97
2023-03-26T10:50:23.343Z,1.53
2023-03-26T10:55:47.795Z,1.93
2023-03-26T11:01:29.835Z,1.50
2023-03-26T11:06:39.772Z,0.90
2023-03-26T11:11:56.924Z,1.03
2023-03-26T11:17:10.308Z,1.53
2023-03-26T11:22:42.987Z,0.47
2023-03-26T11:28:01.848Z,0.67
2023-03-26T11:33:10.505Z,0.80
2023-03-26T11:38:22.707Z,1.10
2023-03-26T11:43:35.612Z,0.97
2023-03-26T11:48:44.940Z,1.50
2023-03-26T11:53:49.209Z,1.00
2023-03-26T11:59:11.755Z,1.20
2023-03-26T12:04:17.471Z,1.33
2023-03-26T12:09:21.322Z,1.27
2023-03-26T12:27:48.374Z,0.40
2023-03-26T12:32:57.085Z,0.60
2023-03-26T12:38:24.845Z,0.70
2023-03-26T12:44:56.580Z,0.63
2023-03-26T12:49:12.291Z,1.30
2023-03-26T12:54:50.788Z,1.50
2023-03-26T13:00:24.380Z,1.47
2023-03-26T13:05:45.397Z,1.50
2023-03-26T13:11:13.621Z,1.10
2023-03-26T13:16:41.404Z,1.27
2023-03-26T13:22:21.736Z,1.57
2023-03-26T13:27:37.453Z,1.33
2023-03-26T13:32:41.692Z,1.40
2023-03-26T13:37:51.389Z,1.47
2023-03-26T13:43:41.552Z,0.90
2023-03-26T13:49:17.895Z,0.80
2023-03-26T13:54:24.556Z,0.87
2023-03-26T13:59:32.436Z,1.00
2023-03-26T14:04:48.238Z,1.17
2023-03-26T14:10:13.609Z,0.97
2023-03-26T14:15:29.224Z,1.10
2023-03-26T14:20:34.693Z,1.00
2023-03-26T14:26:07.238Z,1.20
2023-03-26T14:31:51.771Z,1.13
2023-03-26T14:37:27.912Z,1.43
2023-03-26T14:42:40.040Z,1.50
2023-03-26T14:48:26.942Z,1.33
2023-03-26T14:53:44.750Z,1.20
2023-03-26T14:59:35.665Z,1.37
2023-03-26T15:05:17.583Z,1.20
2023-03-26T15:10:35.473Z,1.30
2023-03-26T15:16:09.826Z,1.40
2023-03-26T15:21:37.752Z,1.00
2023-03-26T15:26:59.733Z,1.50
2023-03-26T15:32:34.742Z,1.23
2023-03-26T15:37:54.891Z,0.93
2023-03-26T15:43:23.215Z,1.20
2023-03-26T15:48:37.971Z,1.17
2023-03-26T15:54:05.217Z,1.10
2023-03-26T15:59:17.197Z,1.10
2023-03-26T16:04:52.046Z,1.00
2023-03-26T16:10:19.859Z,1.57
2023-03-26T16:15:35.290Z,1.33
2023-03-26T16:20:58.007Z,1.27
2023-03-26T16:26:14.290Z,1.30
2023-03-26T16:31:38.225Z,1.20
2023-03-26T16:36:48.551Z,1.07
2023-03-26T16:42:06.248Z,1.60
2023-03-26T16:47:52.710Z,1.13
2023-03-26T16:53:02.931Z,1.60
2023-03-26T16:58:30.493Z,2.50
2023-03-26T17:03:48.608Z,2.30
2023-03-26T17:09:05.575Z,2.00
2023-03-26T17:14:14.321Z,1.60
2023-03-26T17:19:45.686Z,1.90
2023-03-26T17:24:59.531Z,1.90
2023-03-26T17:30:32.710Z,2.60
2023-03-26T17:35:47.669Z,2.80
2023-03-26T17:41:01.643Z,3.10
2023-03-26T17:46:32.776Z,4.30
2023-03-26T17:51:58.762Z,4.00
2023-03-26T17:57:14.601Z,5.70
2023-03-26T18:02:29.839Z,4.50
2023-03-26T18:07:47.115Z,2.80
2023-03-26T18:13:38.924Z,3.00
2023-03-26T18:19:05.044Z,2.77
2023-03-26T18:24:17.406Z,4.30
2023-03-26T18:29:27.032Z,4.90
2023-03-26T18:34:34.311Z,5.43
2023-03-26T18:39:44.716Z,6.27
2023-03-26T18:44:59.699Z,6.23
2023-03-26T18:50:08.706Z,7.73
2023-03-26T18:55:17.789Z,7.40
2023-03-26T19:05:50.108Z,16.97
2023-03-26T19:10:56.358Z,12.47
2023-03-26T19:16:08.993Z,6.13
2023-03-26T19:21:16.932Z,5.13
2023-03-26T19:26:23.444Z,4.77
2023-03-26T19:31:39.128Z,4.23
2023-03-26T19:37:01.941Z,3.50
2023-03-26T19:42:08.026Z,3.73
2023-03-26T19:47:39.108Z,3.53
2023-03-26T19:53:25.292Z,4.10
2023-03-26T19:58:30.385Z,3.53
2023-03-26T20:03:44.587Z,3.73
2023-03-26T20:08:51.478Z,3.57
2023-03-26T20:13:59.474Z,2.90
2023-03-26T20:19:04.942Z,3.00
2023-03-26T20:24:26.859Z,4.10
2023-03-26T20:29:33.254Z,3.10
2023-03-26T20:34:37.514Z,2.57
2023-03-26T20:39:42.324Z,2.60
2023-03-26T20:44:45.862Z,2.63
2023-03-26T20:49:49.831Z,3.33
2023-03-26T20:54:53.923Z,2.77
2023-03-26T20:59:57.622Z,2.47
2023-03-26T21:05:02.009Z,2.57
2023-03-26T21:10:06.678Z,2.40
2023-03-26T21:15:20.854Z,2.50
2023-03-26T21:20:33.160Z,2.47
2023-03-26T21:25:56.837Z,3.10
2023-03-26T21:31:00.656Z,3.13
2023-03-26T21:36:04.824Z,3.17
2023-03-26T21:41:08.537Z,3.60
2023-03-26T21:46:12.746Z,2.90
2023-03-26T21:51:19.452Z,2.67
2023-03-26T21:56:47.772Z,3.33
2023-03-26T22:02:03.130Z,3.27
2023-03-26T22:07:06.306Z,3.10
2023-03-26T22:12:11.075Z,4.10
2023-03-26T22:17:14.507Z,5.90
2023-03-26T22:22:17.923Z,6.30
2023-03-26T22:27:21.456Z,11.23
2023-03-26T22:32:24.814Z,7.17
2023-03-26T22:37:37.669Z,5.57
2023-03-26T22:42:41.754Z,4.57
2023-03-26T22:47:45.332Z,5.33
2023-03-26T22:52:49.037Z,4.83
2023-03-26T22:57:53.650Z,5.03
2023-03-26T23:03:01.042Z,4.97
2023-03-26T23:08:04.618Z,5.17
2023-03-26T23:13:08.109Z,4.53
2023-03-26T23:18:12.178Z,4.90
2023-03-26T23:23:15.419Z,3.70
2023-03-26T23:28:21.203Z,4.13
2023-03-26T23:33:30.548Z,4.57
2023-03-26T23:38:43.870Z,3.97
2023-03-26T23:43:55.764Z,4.97
2023-03-26T23:49:05.713Z,4.23
2023-03-26T23:54:09.404Z,3.53
2023-03-26T23:59:12.823Z,3.93
